TAM4717 SBBV-SBBE
Flight info
| Callsign | TAM4717 |
|---|---|
| Flight time | 2h 19m |
| Altitude | 35000 |
| Route | ANBIX DCT ILVIS UZ24 OPLIP UZ81 DADUD DCT PAKUT |
| Aircraft | A320/M-SDE3FGHIRWY/LB1 |
Departure
| Time | 2026-04-23 17:18 |
|---|---|
| Airport | Atlas Brasil Cantanhede International Airport (SBBV) |
Arrival
| Time | 2026-04-23 19:38 |
|---|---|
| Airport | Val de Cans/Júlio Cezar Ribeiro International Airport (SBBE) |
| Time | Latitude | Longitude | Altitude | Speed | Heading |
|---|---|---|---|---|---|
| 2026-04-23 16:51 | 2.84200 | -60.69247 | 280 ft | 0 kts | 154° |
| 2026-04-23 17:11 | 2.84218 | -60.69256 | 283 ft | 4 kts | 147° |
| 2026-04-23 17:12 | 2.84239 | -60.69272 | 283 ft | 4 kts | 130° |
| 2026-04-23 17:12 | 2.84251 | -60.69294 | 283 ft | 4 kts | 86° |
| 2026-04-23 17:12 | 2.84248 | -60.69306 | 284 ft | 1 kts | 63° |
| 2026-04-23 17:12 | 2.84248 | -60.69307 | 284 ft | 0 kts | 63° |
| 2026-04-23 17:15 | 2.84254 | -60.69295 | 286 ft | 7 kts | 62° |
| 2026-04-23 17:15 | 2.84277 | -60.69253 | 279 ft | 6 kts | 52° |
| 2026-04-23 17:15 | 2.84319 | -60.69272 | 279 ft | 10 kts | 274° |
| 2026-04-23 17:16 | 2.84284 | -60.69354 | 279 ft | 17 kts | 242° |
| 2026-04-23 17:16 | 2.84228 | -60.69463 | 279 ft | 19 kts | 244° |
| 2026-04-23 17:16 | 2.84166 | -60.69582 | 283 ft | 20 kts | 241° |
| 2026-04-23 17:16 | 2.84101 | -60.69708 | 279 ft | 22 kts | 244° |
| 2026-04-23 17:17 | 2.84029 | -60.69851 | 279 ft | 24 kts | 242° |
| 2026-04-23 17:17 | 2.83961 | -60.70001 | 279 ft | 19 kts | 280° |
| 2026-04-23 17:17 | 2.84067 | -60.70063 | 283 ft | 17 kts | 356° |
| 2026-04-23 17:17 | 2.84120 | -60.70003 | 283 ft | 15 kts | 59° |
| 2026-04-23 17:18 | 2.84688 | -60.68892 | 292 ft | 160 kts | 65° |
| 2026-04-23 17:18 | 2.85156 | -60.67871 | 1054 ft | 159 kts | 68° |
| 2026-04-23 17:18 | 2.85649 | -60.66853 | 1767 ft | 166 kts | 64° |
| 2026-04-23 17:19 | 2.86213 | -60.65774 | 2087 ft | 185 kts | 63° |
| 2026-04-23 17:19 | 2.86852 | -60.64562 | 2308 ft | 209 kts | 63° |
| 2026-04-23 17:19 | 2.87566 | -60.63192 | 2589 ft | 234 kts | 65° |
| 2026-04-23 17:19 | 2.87874 | -60.61534 | 2944 ft | 257 kts | 99° |
| 2026-04-23 17:20 | 2.87070 | -60.59920 | 3567 ft | 267 kts | 136° |
| 2026-04-23 17:20 | 2.83552 | -60.59102 | 5163 ft | 274 kts | 190° |
| 2026-04-23 17:21 | 2.79823 | -60.59900 | 6729 ft | 278 kts | 193° |
| 2026-04-23 17:21 | 2.77924 | -60.60317 | 7493 ft | 281 kts | 193° |
| 2026-04-23 17:21 | 2.74017 | -60.60902 | 9014 ft | 288 kts | 184° |
| 2026-04-23 17:22 | 2.72005 | -60.60955 | 9768 ft | 291 kts | 181° |
| 2026-04-23 17:22 | 2.67747 | -60.60976 | 10413 ft | 328 kts | 181° |
| 2026-04-23 17:23 | 2.62940 | -60.61047 | 11094 ft | 356 kts | 182° |
| 2026-04-23 17:23 | 2.60454 | -60.61104 | 11680 ft | 360 kts | 182° |
| 2026-04-23 17:23 | 2.55407 | -60.61246 | 12916 ft | 366 kts | 183° |
| 2026-04-23 17:24 | 2.52843 | -60.61324 | 13537 ft | 370 kts | 184° |
| 2026-04-23 17:24 | 2.50264 | -60.61404 | 14088 ft | 373 kts | 184° |
| 2026-04-23 17:24 | 2.45057 | -60.61558 | 15116 ft | 380 kts | 183° |
| 2026-04-23 17:25 | 2.39730 | -60.61707 | 16122 ft | 387 kts | 183° |
| 2026-04-23 17:25 | 2.37025 | -60.61783 | 16610 ft | 390 kts | 183° |
| 2026-04-23 17:26 | 2.31556 | -60.61938 | 17561 ft | 397 kts | 183° |
| 2026-04-23 17:26 | 2.25976 | -60.62098 | 18432 ft | 404 kts | 183° |
| 2026-04-23 17:27 | 2.20348 | -60.61697 | 19231 ft | 411 kts | 166° |
| 2026-04-23 17:27 | 2.17653 | -60.60704 | 19650 ft | 414 kts | 154° |
| 2026-04-23 17:27 | 2.15205 | -60.59184 | 20070 ft | 417 kts | 142° |
| 2026-04-23 17:27 | 2.13035 | -60.57245 | 20479 ft | 419 kts | 137° |
| 2026-04-23 17:28 | 2.10896 | -60.55253 | 20893 ft | 421 kts | 138° |
| 2026-04-23 17:28 | 2.08742 | -60.53256 | 21295 ft | 423 kts | 138° |
| 2026-04-23 17:28 | 2.06580 | -60.51254 | 21704 ft | 424 kts | 138° |
| 2026-04-23 17:28 | 2.04411 | -60.49250 | 22107 ft | 426 kts | 138° |
| 2026-04-23 17:29 | 2.02227 | -60.47232 | 22492 ft | 428 kts | 138° |
| 2026-04-23 17:29 | 2.00038 | -60.45210 | 22844 ft | 431 kts | 137° |
| 2026-04-23 17:29 | 1.95602 | -60.41111 | 23561 ft | 435 kts | 138° |
| 2026-04-23 17:30 | 1.94135 | -60.39752 | 23773 ft | 436 kts | 138° |
| 2026-04-23 17:30 | 1.88922 | -60.34921 | 24466 ft | 439 kts | 137° |
| 2026-04-23 17:30 | 1.86671 | -60.32838 | 24751 ft | 441 kts | 137° |
| 2026-04-23 17:31 | 1.84415 | -60.30752 | 25042 ft | 443 kts | 137° |
| 2026-04-23 17:31 | 1.82154 | -60.28658 | 25317 ft | 444 kts | 137° |
| 2026-04-23 17:31 | 1.79912 | -60.26582 | 25590 ft | 446 kts | 137° |
| 2026-04-23 17:31 | 1.77631 | -60.24472 | 25871 ft | 448 kts | 137° |
| 2026-04-23 17:32 | 1.75340 | -60.22355 | 26149 ft | 449 kts | 137° |
| 2026-04-23 17:32 | 1.73040 | -60.20230 | 26441 ft | 451 kts | 137° |
| 2026-04-23 17:32 | 1.70732 | -60.18099 | 26712 ft | 453 kts | 137° |
| 2026-04-23 17:32 | 1.68415 | -60.15957 | 26935 ft | 456 kts | 137° |
| 2026-04-23 17:33 | 1.66072 | -60.13789 | 27133 ft | 459 kts | 136° |
| 2026-04-23 17:33 | 1.63728 | -60.11622 | 27429 ft | 459 kts | 136° |
| 2026-04-23 17:33 | 1.61383 | -60.09456 | 27751 ft | 459 kts | 136° |
| 2026-04-23 17:33 | 1.59036 | -60.07286 | 28016 ft | 460 kts | 136° |
| 2026-04-23 17:34 | 1.56681 | -60.05102 | 28264 ft | 462 kts | 136° |
| 2026-04-23 17:34 | 1.54326 | -60.02919 | 28512 ft | 463 kts | 136° |
| 2026-04-23 17:34 | 1.49583 | -59.98531 | 28972 ft | 466 kts | 136° |
| 2026-04-23 17:35 | 1.47195 | -59.96325 | 29202 ft | 467 kts | 136° |
| 2026-04-23 17:35 | 1.42444 | -59.91935 | 29753 ft | 468 kts | 136° |
| 2026-04-23 17:35 | 1.40060 | -59.89732 | 30081 ft | 467 kts | 136° |
| 2026-04-23 17:36 | 1.37679 | -59.87532 | 30365 ft | 466 kts | 136° |
| 2026-04-23 17:36 | 1.35301 | -59.85337 | 30635 ft | 465 kts | 136° |
| 2026-04-23 17:36 | 1.32933 | -59.83151 | 30943 ft | 464 kts | 135° |
| 2026-04-23 17:36 | 1.30567 | -59.80963 | 31292 ft | 460 kts | 135° |
| 2026-04-23 17:37 | 1.28228 | -59.78801 | 31701 ft | 457 kts | 135° |
| 2026-04-23 17:37 | 1.25904 | -59.76653 | 32053 ft | 454 kts | 135° |
| 2026-04-23 17:37 | 1.21274 | -59.72379 | 32702 ft | 451 kts | 135° |
| 2026-04-23 17:38 | 1.18975 | -59.70257 | 33016 ft | 449 kts | 135° |
| 2026-04-23 17:38 | 1.16686 | -59.68145 | 33329 ft | 448 kts | 135° |
| 2026-04-23 17:38 | 1.14392 | -59.66030 | 33641 ft | 447 kts | 135° |
| 2026-04-23 17:38 | 1.12110 | -59.63926 | 33955 ft | 446 kts | 135° |
| 2026-04-23 17:39 | 1.09838 | -59.61830 | 34238 ft | 444 kts | 135° |
| 2026-04-23 17:39 | 1.07574 | -59.59734 | 34521 ft | 443 kts | 135° |
| 2026-04-23 17:39 | 1.05316 | -59.57641 | 34769 ft | 443 kts | 135° |
| 2026-04-23 17:39 | 1.03053 | -59.55546 | 35013 ft | 442 kts | 135° |
| 2026-04-23 17:40 | 1.00801 | -59.53459 | 35262 ft | 441 kts | 135° |
| 2026-04-23 17:40 | 0.98555 | -59.51380 | 35511 ft | 440 kts | 135° |
| 2026-04-23 17:40 | 0.96301 | -59.49297 | 35704 ft | 441 kts | 135° |
| 2026-04-23 17:40 | 0.94054 | -59.47221 | 35925 ft | 440 kts | 135° |
| 2026-04-23 17:41 | 0.91805 | -59.45144 | 36154 ft | 439 kts | 134° |
| 2026-04-23 17:41 | 0.87330 | -59.41003 | 36625 ft | 437 kts | 134° |
| 2026-04-23 17:41 | 0.85104 | -59.38939 | 36846 ft | 436 kts | 134° |
| 2026-04-23 17:42 | 0.78450 | -59.32727 | 36942 ft | 436 kts | 132° |
| 2026-04-23 17:43 | 0.74267 | -59.28349 | 36943 ft | 436 kts | 130° |
| 2026-04-23 17:43 | 0.70190 | -59.23870 | 36945 ft | 436 kts | 129° |
| 2026-04-23 17:44 | 0.66062 | -59.19414 | 36944 ft | 437 kts | 130° |
| 2026-04-23 17:44 | 0.59795 | -59.12789 | 36945 ft | 438 kts | 130° |
| 2026-04-23 17:45 | 0.53544 | -59.06181 | 36947 ft | 438 kts | 130° |
| 2026-04-23 17:46 | 0.47271 | -58.99527 | 36945 ft | 439 kts | 130° |
| 2026-04-23 17:46 | 0.43097 | -58.95092 | 36946 ft | 439 kts | 130° |
| 2026-04-23 17:47 | 0.38898 | -58.90641 | 36947 ft | 439 kts | 130° |
| 2026-04-23 17:48 | 0.32606 | -58.83977 | 36953 ft | 440 kts | 130° |
| 2026-04-23 17:48 | 0.28404 | -58.79534 | 36951 ft | 440 kts | 130° |
| 2026-04-23 17:49 | 0.24206 | -58.75077 | 36949 ft | 440 kts | 130° |
| 2026-04-23 17:49 | 0.20004 | -58.70619 | 36954 ft | 441 kts | 130° |
| 2026-04-23 17:50 | 0.15797 | -58.66160 | 36953 ft | 441 kts | 130° |
| 2026-04-23 17:50 | 0.10190 | -58.60217 | 36954 ft | 441 kts | 130° |
| 2026-04-23 17:51 | 0.05981 | -58.55755 | 36962 ft | 441 kts | 130° |
| 2026-04-23 17:52 | -0.00342 | -58.49050 | 36964 ft | 441 kts | 130° |
| 2026-04-23 17:52 | -0.06651 | -58.42372 | 36963 ft | 440 kts | 130° |
| 2026-04-23 17:53 | -0.12950 | -58.35694 | 36961 ft | 440 kts | 130° |
| 2026-04-23 17:54 | -0.17112 | -58.31276 | 36958 ft | 439 kts | 130° |
| 2026-04-23 17:54 | -0.23403 | -58.24601 | 36953 ft | 439 kts | 130° |
| 2026-04-23 17:55 | -0.29694 | -58.17942 | 36936 ft | 439 kts | 131° |
| 2026-04-23 17:56 | -0.33895 | -58.13484 | 36941 ft | 440 kts | 131° |
| 2026-04-23 17:56 | -0.40172 | -58.06835 | 36936 ft | 441 kts | 131° |
| 2026-04-23 17:57 | -0.44378 | -58.02370 | 36937 ft | 441 kts | 131° |
| 2026-04-23 17:58 | -0.50696 | -57.95662 | 36948 ft | 442 kts | 131° |
| 2026-04-23 17:58 | -0.54917 | -57.91192 | 36947 ft | 442 kts | 131° |
| 2026-04-23 17:59 | -0.59142 | -57.86718 | 36944 ft | 443 kts | 131° |
| 2026-04-23 17:59 | -0.63375 | -57.82232 | 36943 ft | 443 kts | 131° |
| 2026-04-23 18:00 | -0.67760 | -57.77884 | 36941 ft | 447 kts | 139° |
| 2026-04-23 18:00 | -0.72654 | -57.74038 | 36944 ft | 448 kts | 139° |
| 2026-04-23 18:01 | -0.77551 | -57.70195 | 36952 ft | 448 kts | 139° |
| 2026-04-23 18:01 | -0.82352 | -57.66429 | 36942 ft | 424 kts | 139° |
| 2026-04-23 18:02 | -0.86881 | -57.62875 | 36944 ft | 411 kts | 139° |
| 2026-04-23 18:02 | -0.91356 | -57.59339 | 36945 ft | 409 kts | 139° |
| 2026-04-23 18:03 | -0.95814 | -57.55826 | 36948 ft | 408 kts | 139° |
| 2026-04-23 18:03 | -1.00302 | -57.52304 | 36949 ft | 410 kts | 139° |
| 2026-04-23 18:04 | -1.04789 | -57.48769 | 36946 ft | 411 kts | 139° |
| 2026-04-23 18:04 | -1.09247 | -57.45260 | 36944 ft | 411 kts | 139° |
| 2026-04-23 18:05 | -1.13744 | -57.41728 | 36944 ft | 411 kts | 139° |
| 2026-04-23 18:05 | -1.18234 | -57.38196 | 36953 ft | 410 kts | 139° |
| 2026-04-23 18:06 | -1.22701 | -57.34679 | 36951 ft | 409 kts | 139° |
| 2026-04-23 18:06 | -1.27174 | -57.31155 | 36951 ft | 408 kts | 139° |
| 2026-04-23 18:07 | -1.31638 | -57.27653 | 36941 ft | 408 kts | 139° |
| 2026-04-23 18:07 | -1.36115 | -57.24137 | 36941 ft | 409 kts | 139° |
| 2026-04-23 18:08 | -1.39829 | -57.21214 | 36945 ft | 409 kts | 139° |
| 2026-04-23 18:08 | -1.45050 | -57.17102 | 36941 ft | 409 kts | 139° |
| 2026-04-23 18:09 | -1.49489 | -57.13619 | 36940 ft | 408 kts | 139° |
| 2026-04-23 18:09 | -1.53952 | -57.10111 | 36932 ft | 408 kts | 140° |
| 2026-04-23 18:10 | -1.58411 | -57.06592 | 36931 ft | 408 kts | 140° |
| 2026-04-23 18:10 | -1.62870 | -57.03078 | 36939 ft | 408 kts | 139° |
| 2026-04-23 18:11 | -1.67332 | -56.99565 | 36942 ft | 408 kts | 139° |
| 2026-04-23 18:11 | -1.71786 | -56.96063 | 36944 ft | 407 kts | 139° |
| 2026-04-23 18:12 | -1.76238 | -56.92563 | 36946 ft | 407 kts | 139° |
| 2026-04-23 18:12 | -1.80694 | -56.89058 | 36947 ft | 407 kts | 139° |
| 2026-04-23 18:13 | -1.85141 | -56.85557 | 36940 ft | 407 kts | 139° |
| 2026-04-23 18:13 | -1.89583 | -56.82059 | 36937 ft | 407 kts | 139° |
| 2026-04-23 18:14 | -1.94034 | -56.78557 | 36937 ft | 406 kts | 139° |
| 2026-04-23 18:14 | -1.98464 | -56.75057 | 36936 ft | 406 kts | 139° |
| 2026-04-23 18:15 | -2.02905 | -56.71556 | 36938 ft | 406 kts | 139° |
| 2026-04-23 18:15 | -2.07339 | -56.68060 | 36933 ft | 405 kts | 139° |
| 2026-04-23 18:16 | -2.11742 | -56.64597 | 36936 ft | 405 kts | 139° |
| 2026-04-23 18:16 | -2.16175 | -56.61106 | 36935 ft | 405 kts | 139° |
| 2026-04-23 18:17 | -2.22821 | -56.55874 | 36929 ft | 405 kts | 139° |
| 2026-04-23 18:17 | -2.27253 | -56.52385 | 36927 ft | 405 kts | 139° |
| 2026-04-23 18:18 | -2.31679 | -56.48901 | 36925 ft | 405 kts | 139° |
| 2026-04-23 18:18 | -2.36102 | -56.45421 | 36924 ft | 405 kts | 139° |
| 2026-04-23 18:19 | -2.40527 | -56.41931 | 36921 ft | 405 kts | 139° |
| 2026-04-23 18:19 | -2.44959 | -56.38434 | 36923 ft | 405 kts | 139° |
| 2026-04-23 18:20 | -2.49379 | -56.34943 | 36922 ft | 405 kts | 139° |
| 2026-04-23 18:20 | -2.53773 | -56.31472 | 36921 ft | 404 kts | 136° |
| 2026-04-23 18:21 | -2.57263 | -56.27161 | 36910 ft | 399 kts | 115° |
| 2026-04-23 18:21 | -2.58891 | -56.21909 | 36906 ft | 396 kts | 95° |
| 2026-04-23 18:22 | -2.58704 | -56.16418 | 36902 ft | 396 kts | 83° |
| 2026-04-23 18:22 | -2.58073 | -56.10945 | 36905 ft | 397 kts | 83° |
| 2026-04-23 18:23 | -2.57128 | -56.02716 | 36913 ft | 398 kts | 83° |
| 2026-04-23 18:24 | -2.56177 | -55.94461 | 36915 ft | 398 kts | 83° |
| 2026-04-23 18:25 | -2.55229 | -55.86210 | 36918 ft | 398 kts | 83° |
| 2026-04-23 18:25 | -2.54601 | -55.80730 | 36920 ft | 398 kts | 83° |
| 2026-04-23 18:26 | -2.53966 | -55.75225 | 36915 ft | 399 kts | 83° |
| 2026-04-23 18:26 | -2.53329 | -55.69713 | 36913 ft | 400 kts | 83° |
| 2026-04-23 18:27 | -2.52691 | -55.64193 | 36909 ft | 400 kts | 83° |
| 2026-04-23 18:27 | -2.52061 | -55.58657 | 36910 ft | 400 kts | 83° |
| 2026-04-23 18:28 | -2.51428 | -55.53120 | 36921 ft | 400 kts | 83° |
| 2026-04-23 18:28 | -2.50783 | -55.47592 | 36916 ft | 400 kts | 83° |
| 2026-04-23 18:29 | -2.50145 | -55.42066 | 36920 ft | 400 kts | 83° |
| 2026-04-23 18:29 | -2.49503 | -55.36562 | 36918 ft | 400 kts | 82° |
| 2026-04-23 18:30 | -2.48739 | -55.31018 | 36915 ft | 400 kts | 81° |
| 2026-04-23 18:30 | -2.47946 | -55.25541 | 36922 ft | 401 kts | 82° |
| 2026-04-23 18:31 | -2.47174 | -55.20016 | 36920 ft | 401 kts | 82° |
| 2026-04-23 18:31 | -2.46417 | -55.14496 | 36919 ft | 401 kts | 82° |
| 2026-04-23 18:32 | -2.45654 | -55.08971 | 36917 ft | 401 kts | 82° |
| 2026-04-23 18:32 | -2.44893 | -55.03443 | 36914 ft | 401 kts | 82° |
| 2026-04-23 18:33 | -2.44135 | -54.97908 | 36908 ft | 402 kts | 82° |
| 2026-04-23 18:33 | -2.43371 | -54.92373 | 36907 ft | 402 kts | 82° |
| 2026-04-23 18:34 | -2.42604 | -54.86821 | 36905 ft | 402 kts | 82° |
| 2026-04-23 18:34 | -2.41831 | -54.81282 | 36906 ft | 403 kts | 82° |
| 2026-04-23 18:35 | -2.41063 | -54.75734 | 36906 ft | 403 kts | 82° |
| 2026-04-23 18:35 | -2.40303 | -54.70205 | 36903 ft | 404 kts | 82° |
| 2026-04-23 18:36 | -2.39532 | -54.64634 | 36907 ft | 404 kts | 82° |
| 2026-04-23 18:36 | -2.38754 | -54.59069 | 36907 ft | 405 kts | 81° |
| 2026-04-23 18:37 | -2.37976 | -54.53489 | 36911 ft | 405 kts | 82° |
| 2026-04-23 18:37 | -2.37180 | -54.47911 | 36912 ft | 405 kts | 81° |
| 2026-04-23 18:38 | -2.36275 | -54.42345 | 36907 ft | 406 kts | 80° |
| 2026-04-23 18:38 | -2.35495 | -54.37714 | 36911 ft | 406 kts | 80° |
| 2026-04-23 18:39 | -2.34568 | -54.32141 | 36913 ft | 406 kts | 80° |
| 2026-04-23 18:39 | -2.33660 | -54.26567 | 36916 ft | 406 kts | 80° |
| 2026-04-23 18:40 | -2.32760 | -54.20996 | 36916 ft | 406 kts | 81° |
| 2026-04-23 18:40 | -2.31854 | -54.15413 | 36925 ft | 407 kts | 81° |
| 2026-04-23 18:41 | -2.30945 | -54.09854 | 36928 ft | 407 kts | 81° |
| 2026-04-23 18:41 | -2.30038 | -54.04281 | 36920 ft | 406 kts | 81° |
| 2026-04-23 18:42 | -2.29133 | -53.98696 | 36915 ft | 406 kts | 81° |
| 2026-04-23 18:42 | -2.28227 | -53.93089 | 36918 ft | 406 kts | 81° |
| 2026-04-23 18:43 | -2.27318 | -53.87552 | 36914 ft | 406 kts | 81° |
| 2026-04-23 18:43 | -2.26407 | -53.81986 | 36912 ft | 406 kts | 81° |
| 2026-04-23 18:44 | -2.25502 | -53.76426 | 36913 ft | 406 kts | 81° |
| 2026-04-23 18:44 | -2.24602 | -53.70855 | 36918 ft | 405 kts | 81° |
| 2026-04-23 18:45 | -2.23696 | -53.65293 | 36925 ft | 405 kts | 81° |
| 2026-04-23 18:45 | -2.22787 | -53.59739 | 36923 ft | 405 kts | 81° |
| 2026-04-23 18:46 | -2.21879 | -53.54182 | 36915 ft | 404 kts | 81° |
| 2026-04-23 18:46 | -2.20973 | -53.48636 | 36910 ft | 404 kts | 81° |
| 2026-04-23 18:47 | -2.20080 | -53.43096 | 36908 ft | 404 kts | 81° |
| 2026-04-23 18:47 | -2.19184 | -53.37556 | 36910 ft | 404 kts | 81° |
| 2026-04-23 18:48 | -2.18278 | -53.32007 | 36909 ft | 404 kts | 81° |
| 2026-04-23 18:48 | -2.17370 | -53.26465 | 36912 ft | 404 kts | 81° |
| 2026-04-23 18:49 | -2.16466 | -53.20924 | 36912 ft | 403 kts | 81° |
| 2026-04-23 18:49 | -2.15564 | -53.15396 | 36919 ft | 403 kts | 81° |
| 2026-04-23 18:50 | -2.14815 | -53.10802 | 36916 ft | 403 kts | 81° |
| 2026-04-23 18:50 | -2.13768 | -53.04352 | 36910 ft | 402 kts | 81° |
| 2026-04-23 18:51 | -2.12867 | -52.98836 | 36912 ft | 401 kts | 81° |
| 2026-04-23 18:51 | -2.11970 | -52.93368 | 36915 ft | 401 kts | 81° |
| 2026-04-23 18:52 | -2.11077 | -52.87874 | 36920 ft | 400 kts | 81° |
| 2026-04-23 18:52 | -2.10189 | -52.82375 | 36914 ft | 400 kts | 81° |
| 2026-04-23 18:53 | -2.09291 | -52.76893 | 36910 ft | 400 kts | 81° |
| 2026-04-23 18:53 | -2.08396 | -52.71399 | 36903 ft | 399 kts | 81° |
| 2026-04-23 18:54 | -2.07513 | -52.65924 | 36906 ft | 399 kts | 81° |
| 2026-04-23 18:54 | -2.06623 | -52.60428 | 36905 ft | 399 kts | 81° |
| 2026-04-23 18:55 | -2.05729 | -52.54957 | 36906 ft | 399 kts | 81° |
| 2026-04-23 18:55 | -2.04844 | -52.49479 | 36902 ft | 399 kts | 81° |
| 2026-04-23 18:56 | -2.04111 | -52.44930 | 36896 ft | 399 kts | 81° |
| 2026-04-23 18:56 | -2.03065 | -52.38534 | 36898 ft | 399 kts | 81° |
| 2026-04-23 18:57 | -2.02156 | -52.33048 | 36894 ft | 400 kts | 81° |
| 2026-04-23 18:57 | -2.01254 | -52.27569 | 36897 ft | 400 kts | 81° |
| 2026-04-23 18:58 | -2.00357 | -52.22115 | 36878 ft | 400 kts | 81° |
| 2026-04-23 18:58 | -1.99456 | -52.16587 | 36879 ft | 400 kts | 81° |
| 2026-04-23 18:59 | -1.98563 | -52.11133 | 36892 ft | 400 kts | 81° |
| 2026-04-23 18:59 | -1.97657 | -52.05647 | 36891 ft | 401 kts | 81° |
| 2026-04-23 19:00 | -1.96746 | -52.00146 | 36892 ft | 401 kts | 81° |
| 2026-04-23 19:00 | -1.95835 | -51.94650 | 36889 ft | 401 kts | 81° |
| 2026-04-23 19:01 | -1.94934 | -51.89148 | 36894 ft | 401 kts | 81° |
| 2026-04-23 19:01 | -1.94033 | -51.83644 | 36894 ft | 401 kts | 81° |
| 2026-04-23 19:02 | -1.93280 | -51.79069 | 36885 ft | 401 kts | 81° |
| 2026-04-23 19:02 | -1.92224 | -51.72640 | 36892 ft | 401 kts | 81° |
| 2026-04-23 19:03 | -1.91320 | -51.67151 | 36896 ft | 400 kts | 81° |
| 2026-04-23 19:03 | -1.90411 | -51.61655 | 36896 ft | 400 kts | 81° |
| 2026-04-23 19:04 | -1.89504 | -51.56167 | 36894 ft | 400 kts | 81° |
| 2026-04-23 19:04 | -1.88606 | -51.50676 | 36889 ft | 400 kts | 81° |
| 2026-04-23 19:05 | -1.87704 | -51.45191 | 36896 ft | 400 kts | 81° |
| 2026-04-23 19:05 | -1.86797 | -51.39717 | 36895 ft | 400 kts | 81° |
| 2026-04-23 19:06 | -1.85895 | -51.34226 | 36895 ft | 400 kts | 81° |
| 2026-04-23 19:06 | -1.84988 | -51.28771 | 36880 ft | 400 kts | 81° |
| 2026-04-23 19:07 | -1.84074 | -51.23243 | 36880 ft | 400 kts | 81° |
| 2026-04-23 19:07 | -1.83170 | -51.17755 | 36883 ft | 401 kts | 81° |
| 2026-04-23 19:08 | -1.82272 | -51.12287 | 36879 ft | 401 kts | 81° |
| 2026-04-23 19:08 | -1.81361 | -51.06787 | 36887 ft | 401 kts | 81° |
| 2026-04-23 19:09 | -1.80453 | -51.01290 | 36883 ft | 401 kts | 81° |
| 2026-04-23 19:09 | -1.79858 | -50.95764 | 36884 ft | 400 kts | 89° |
| 2026-04-23 19:10 | -1.79688 | -50.90201 | 36883 ft | 400 kts | 88° |
| 2026-04-23 19:10 | -1.79511 | -50.84642 | 36873 ft | 401 kts | 88° |
| 2026-04-23 19:11 | -1.79323 | -50.79066 | 36874 ft | 401 kts | 88° |
| 2026-04-23 19:11 | -1.79143 | -50.73504 | 36874 ft | 401 kts | 88° |
| 2026-04-23 19:12 | -1.78992 | -50.68865 | 36880 ft | 401 kts | 88° |
| 2026-04-23 19:12 | -1.78775 | -50.62385 | 36871 ft | 401 kts | 88° |
| 2026-04-23 19:13 | -1.78592 | -50.56766 | 36883 ft | 410 kts | 88° |
| 2026-04-23 19:13 | -1.78406 | -50.50946 | 36882 ft | 422 kts | 88° |
| 2026-04-23 19:14 | -1.78217 | -50.45056 | 36883 ft | 433 kts | 88° |
| 2026-04-23 19:14 | -1.78115 | -50.42023 | 36520 ft | 440 kts | 88° |
| 2026-04-23 19:14 | -1.78013 | -50.38942 | 35595 ft | 448 kts | 89° |
| 2026-04-23 19:14 | -1.77913 | -50.35810 | 34766 ft | 452 kts | 89° |
| 2026-04-23 19:15 | -1.77811 | -50.32662 | 34025 ft | 455 kts | 89° |
| 2026-04-23 19:15 | -1.77703 | -50.29491 | 33225 ft | 457 kts | 88° |
| 2026-04-23 19:15 | -1.77596 | -50.26304 | 32418 ft | 458 kts | 88° |
| 2026-04-23 19:15 | -1.77494 | -50.23120 | 31624 ft | 458 kts | 89° |
| 2026-04-23 19:16 | -1.77398 | -50.19934 | 30830 ft | 459 kts | 88° |
| 2026-04-23 19:16 | -1.77300 | -50.16743 | 30041 ft | 460 kts | 88° |
| 2026-04-23 19:16 | -1.77198 | -50.13554 | 29231 ft | 458 kts | 88° |
| 2026-04-23 19:17 | -1.76634 | -50.07290 | 27920 ft | 448 kts | 82° |
| 2026-04-23 19:17 | -1.76213 | -50.04220 | 27276 ft | 443 kts | 82° |
| 2026-04-23 19:17 | -1.75798 | -50.01187 | 26661 ft | 438 kts | 82° |
| 2026-04-23 19:17 | -1.75387 | -49.98184 | 26065 ft | 434 kts | 82° |
| 2026-04-23 19:18 | -1.74980 | -49.95207 | 25469 ft | 430 kts | 83° |
| 2026-04-23 19:18 | -1.74580 | -49.92253 | 24888 ft | 426 kts | 83° |
| 2026-04-23 19:18 | -1.74187 | -49.89330 | 24324 ft | 423 kts | 83° |
| 2026-04-23 19:18 | -1.73798 | -49.86429 | 23769 ft | 419 kts | 83° |
| 2026-04-23 19:19 | -1.73032 | -49.80705 | 22537 ft | 412 kts | 83° |
| 2026-04-23 19:19 | -1.72650 | -49.77883 | 21954 ft | 408 kts | 82° |
| 2026-04-23 19:20 | -1.71887 | -49.72319 | 20815 ft | 401 kts | 82° |
| 2026-04-23 19:20 | -1.71509 | -49.69575 | 20266 ft | 397 kts | 82° |
| 2026-04-23 19:20 | -1.71139 | -49.66870 | 19745 ft | 394 kts | 82° |
| 2026-04-23 19:20 | -1.70773 | -49.64173 | 19231 ft | 391 kts | 82° |
| 2026-04-23 19:21 | -1.70412 | -49.61487 | 18727 ft | 388 kts | 82° |
| 2026-04-23 19:21 | -1.69703 | -49.56183 | 17692 ft | 382 kts | 82° |
| 2026-04-23 19:21 | -1.69350 | -49.53561 | 17168 ft | 379 kts | 82° |
| 2026-04-23 19:22 | -1.69111 | -49.51794 | 16819 ft | 377 kts | 82° |
| 2026-04-23 19:22 | -1.68645 | -49.48383 | 16164 ft | 373 kts | 82° |
| 2026-04-23 19:22 | -1.68058 | -49.44103 | 15365 ft | 368 kts | 82° |
| 2026-04-23 19:23 | -1.67715 | -49.41613 | 14904 ft | 365 kts | 82° |
| 2026-04-23 19:23 | -1.67368 | -49.39071 | 14482 ft | 363 kts | 82° |
| 2026-04-23 19:23 | -1.67028 | -49.36576 | 14255 ft | 363 kts | 82° |
| 2026-04-23 19:24 | -1.66353 | -49.31587 | 13809 ft | 361 kts | 82° |
| 2026-04-23 19:24 | -1.66023 | -49.29140 | 13566 ft | 358 kts | 82° |
| 2026-04-23 19:24 | -1.65375 | -49.24343 | 13052 ft | 339 kts | 82° |
| 2026-04-23 19:25 | -1.64753 | -49.19791 | 12551 ft | 323 kts | 82° |
| 2026-04-23 19:25 | -1.64160 | -49.15442 | 12057 ft | 309 kts | 82° |
| 2026-04-23 19:26 | -1.63589 | -49.11259 | 11569 ft | 298 kts | 82° |
| 2026-04-23 19:26 | -1.63314 | -49.09236 | 11462 ft | 288 kts | 82° |
| 2026-04-23 19:27 | -1.62779 | -49.05338 | 11459 ft | 281 kts | 82° |
| 2026-04-23 19:27 | -1.61979 | -48.99511 | 10547 ft | 279 kts | 82° |
| 2026-04-23 19:28 | -1.61458 | -48.95686 | 10295 ft | 277 kts | 82° |
| 2026-04-23 19:28 | -1.60938 | -48.91874 | 10045 ft | 276 kts | 82° |
| 2026-04-23 19:29 | -1.60674 | -48.89967 | 9770 ft | 278 kts | 82° |
| 2026-04-23 19:29 | -1.60175 | -48.86340 | 9229 ft | 250 kts | 82° |
| 2026-04-23 19:30 | -1.59724 | -48.83036 | 8630 ft | 229 kts | 82° |
| 2026-04-23 19:30 | -1.59511 | -48.81478 | 8365 ft | 226 kts | 82° |
| 2026-04-23 19:30 | -1.59080 | -48.78328 | 7534 ft | 228 kts | 82° |
| 2026-04-23 19:31 | -1.58866 | -48.76771 | 7129 ft | 224 kts | 82° |
| 2026-04-23 19:31 | -1.58653 | -48.75236 | 6735 ft | 221 kts | 82° |
| 2026-04-23 19:31 | -1.58448 | -48.73738 | 6477 ft | 214 kts | 82° |
| 2026-04-23 19:31 | -1.58250 | -48.72277 | 6229 ft | 211 kts | 82° |
| 2026-04-23 19:32 | -1.58055 | -48.70847 | 5969 ft | 210 kts | 82° |
| 2026-04-23 19:32 | -1.57853 | -48.69371 | 5680 ft | 215 kts | 82° |
| 2026-04-23 19:32 | -1.57478 | -48.67902 | 5377 ft | 221 kts | 67° |
| 2026-04-23 19:32 | -1.56695 | -48.66586 | 5079 ft | 221 kts | 51° |
| 2026-04-23 19:33 | -1.55625 | -48.65478 | 4780 ft | 220 kts | 46° |
| 2026-04-23 19:33 | -1.54545 | -48.64395 | 4464 ft | 220 kts | 46° |
| 2026-04-23 19:33 | -1.52340 | -48.62168 | 3673 ft | 230 kts | 46° |
| 2026-04-23 19:34 | -1.51220 | -48.61037 | 3359 ft | 229 kts | 47° |
| 2026-04-23 19:34 | -1.50099 | -48.59905 | 3067 ft | 227 kts | 46° |
| 2026-04-23 19:34 | -1.47925 | -48.57711 | 2486 ft | 214 kts | 46° |
| 2026-04-23 19:35 | -1.46907 | -48.56684 | 2230 ft | 203 kts | 45° |
| 2026-04-23 19:35 | -1.45933 | -48.55701 | 1984 ft | 193 kts | 45° |
| 2026-04-23 19:35 | -1.45022 | -48.54781 | 1732 ft | 180 kts | 44° |
| 2026-04-23 19:35 | -1.44167 | -48.53917 | 1507 ft | 170 kts | 44° |
| 2026-04-23 19:36 | -1.43341 | -48.53084 | 1298 ft | 167 kts | 44° |
| 2026-04-23 19:36 | -1.42543 | -48.52279 | 1065 ft | 160 kts | 44° |
| 2026-04-23 19:36 | -1.41770 | -48.51499 | 868 ft | 154 kts | 45° |
| 2026-04-23 19:36 | -1.41036 | -48.50758 | 676 ft | 147 kts | 44° |
| 2026-04-23 19:37 | -1.40329 | -48.50044 | 499 ft | 143 kts | 44° |
| 2026-04-23 19:37 | -1.39638 | -48.49346 | 327 ft | 138 kts | 46° |
| 2026-04-23 19:37 | -1.38958 | -48.48664 | 139 ft | 139 kts | 45° |
| 2026-04-23 19:37 | -1.38313 | -48.48007 | 45 ft | 122 kts | 44° |
| 2026-04-23 19:38 | -1.37975 | -48.47666 | 40 ft | 21 kts | 49° |
| 2026-04-23 19:38 | -1.37999 | -48.47624 | 40 ft | 6 kts | 174° |
| 2026-04-23 19:38 | -1.38044 | -48.47624 | 41 ft | 5 kts | 185° |
| 2026-04-23 19:38 | -1.38104 | -48.47631 | 42 ft | 17 kts | 187° |
| 2026-04-23 19:39 | -1.38232 | -48.47644 | 43 ft | 19 kts | 186° |
| 2026-04-23 19:39 | -1.38372 | -48.47657 | 40 ft | 21 kts | 186° |
| 2026-04-23 19:39 | -1.38524 | -48.47671 | 44 ft | 23 kts | 185° |
| 2026-04-23 19:39 | -1.38657 | -48.47700 | 43 ft | 15 kts | 216° |
| 2026-04-23 19:40 | -1.38671 | -48.47771 | 41 ft | 10 kts | 251° |
| 2026-04-23 19:40 | -1.38726 | -48.47795 | 42 ft | 8 kts | 186° |
| 2026-04-23 19:40 | -1.38784 | -48.47801 | 43 ft | 11 kts | 185° |
| 2026-04-23 19:40 | -1.38855 | -48.47812 | 42 ft | 10 kts | 203° |
| 2026-04-23 19:41 | -1.38896 | -48.47857 | 43 ft | 8 kts | 235° |
| 2026-04-23 19:41 | -1.38924 | -48.47896 | 41 ft | 6 kts | 233° |
| 2026-04-23 19:41 | -1.38925 | -48.47898 | 42 ft | 0 kts | 234° |